createdAt,value
2022-08-14T00:02:15.794Z,47.24
2022-08-14T00:04:44.996Z,44.89
2022-08-14T00:07:14.072Z,49.17
2022-08-14T00:10:01.323Z,47.10
2022-08-14T00:12:39.397Z,48.36
2022-08-14T00:15:29.987Z,48.63
2022-08-14T00:18:14.685Z,45.21
2022-08-14T00:21:00.716Z,48.99
2022-08-14T00:23:28.869Z,49.32
2022-08-14T00:26:05.772Z,47.91
2022-08-14T00:28:35.998Z,49.14
2022-08-14T00:31:06.730Z,49.82
2022-08-14T00:33:51.157Z,45.78
2022-08-14T00:36:37.432Z,46.12
2022-08-14T00:39:12.934Z,43.07
2022-08-14T00:41:40.668Z,45.58
2022-08-14T00:44:10.634Z,50.29
2022-08-14T00:46:38.859Z,51.24
2022-08-14T00:49:11.559Z,50.40
2022-08-14T00:51:45.422Z,52.17
2022-08-14T00:54:22.042Z,51.18
2022-08-14T00:56:55.212Z,51.28
2022-08-14T00:59:28.675Z,51.54
2022-08-14T01:01:58.839Z,50.89
2022-08-14T01:04:50.842Z,49.92
2022-08-14T01:07:20.594Z,52.16
2022-08-14T01:09:54.221Z,51.66
2022-08-14T01:12:27.320Z,52.22
2022-08-14T01:15:02.715Z,50.34
2022-08-14T01:17:51.920Z,47.80
2022-08-14T01:20:57.308Z,48.81
2022-08-14T01:23:27.530Z,52.49
2022-08-14T01:26:11.682Z,50.28
2022-08-14T01:28:56.279Z,52.30
2022-08-14T01:31:36.881Z,52.04
2022-08-14T01:35:17.243Z,52.93
2022-08-14T01:36:57.583Z,52.52
2022-08-14T01:39:25.739Z,52.00
2022-08-14T01:41:58.091Z,51.05
2022-08-14T01:44:33.157Z,50.41
2022-08-14T01:47:21.493Z,50.45
2022-08-14T01:50:01.273Z,52.74
2022-08-14T01:52:58.953Z,52.26
2022-08-14T01:55:31.271Z,52.85
2022-08-14T01:58:01.423Z,53.64
2022-08-14T02:00:54.140Z,53.76
2022-08-14T02:03:29.938Z,54.08
2022-08-14T02:06:03.869Z,54.06
2022-08-14T02:08:53.338Z,54.07
2022-08-14T02:11:24.644Z,54.34
2022-08-14T02:14:07.211Z,56.04
2022-08-14T02:16:39.285Z,56.95
2022-08-14T02:19:09.769Z,57.51
2022-08-14T02:21:43.648Z,56.27
2022-08-14T02:24:40.129Z,57.01
2022-08-14T02:28:22.348Z,55.94
2022-08-14T02:30:00.258Z,55.93
2022-08-14T02:32:37.298Z,55.04
2022-08-14T02:35:18.768Z,55.53
2022-08-14T02:37:49.405Z,57.13
2022-08-14T02:40:19.326Z,58.17
2022-08-14T02:42:54.848Z,56.10
2022-08-14T02:45:33.209Z,56.10
2022-08-14T02:48:10.350Z,52.65
2022-08-14T02:50:55.264Z,57.13
2022-08-14T02:53:22.921Z,56.54
2022-08-14T02:55:51.081Z,55.33
2022-08-14T02:58:30.859Z,54.76
2022-08-14T03:01:01.607Z,53.86
2022-08-14T03:03:31.859Z,43.90
2022-08-14T03:06:00.470Z,43.13
2022-08-14T03:08:31.819Z,54.58
2022-08-14T03:11:07.541Z,54.77
2022-08-14T03:13:47.336Z,56.21
2022-08-14T03:16:20.124Z,52.65
2022-08-14T03:18:59.866Z,56.49
2022-08-14T03:21:30.037Z,60.00
2022-08-14T03:24:02.201Z,57.07
2022-08-14T03:26:30.840Z,56.56
2022-08-14T03:29:01.226Z,57.75
2022-08-14T03:31:30.060Z,57.54
2022-08-14T03:34:00.175Z,59.38
2022-08-14T03:38:50.595Z,60.41
2022-08-14T03:39:24.152Z,60.70
2022-08-14T03:41:54.288Z,59.86
2022-08-14T03:45:20.037Z,59.98
2022-08-14T03:47:12.015Z,54.15
2022-08-14T03:49:42.420Z,57.68
2022-08-14T03:52:37.628Z,55.49
2022-08-14T03:54:59.803Z,52.36
2022-08-14T03:57:32.366Z,56.22
2022-08-14T04:00:03.634Z,57.58
2022-08-14T04:02:47.206Z,57.53
2022-08-14T04:05:16.627Z,56.76
2022-08-14T04:08:00.213Z,60.94
2022-08-14T04:10:33.122Z,55.63
2022-08-14T04:13:03.393Z,56.98
2022-08-14T04:15:56.733Z,56.04
2022-08-14T04:18:23.121Z,58.98
2022-08-14T04:20:51.673Z,53.30
2022-08-14T04:23:29.435Z,46.95
2022-08-14T04:26:02.417Z,54.93
2022-08-14T04:29:01.924Z,52.46
2022-08-14T04:31:24.717Z,60.78
2022-08-14T04:33:53.198Z,60.08
2022-08-14T04:36:21.408Z,61.02
2022-08-14T04:39:10.184Z,61.24
2022-08-14T04:41:58.336Z,53.81
2022-08-14T04:44:36.763Z,62.10
2022-08-14T04:47:23.764Z,59.99
2022-08-14T04:49:57.593Z,61.74
2022-08-14T04:52:25.650Z,60.87
2022-08-14T04:54:54.703Z,61.63
2022-08-14T04:57:23.211Z,59.08
2022-08-14T04:59:52.757Z,60.53
2022-08-14T05:02:24.472Z,60.21
2022-08-14T05:04:58.486Z,61.44
2022-08-14T05:07:46.404Z,61.86
2022-08-14T05:10:16.675Z,59.78
2022-08-14T05:13:13.510Z,60.58
2022-08-14T05:15:41.294Z,61.52
2022-08-14T05:18:17.271Z,58.72
2022-08-14T05:21:58.098Z,55.53
2022-08-14T05:23:49.996Z,59.88
2022-08-14T05:26:20.370Z,60.62
2022-08-14T05:28:51.668Z,61.60
2022-08-14T05:31:20.670Z,61.75
2022-08-14T05:33:54.682Z,61.87
2022-08-14T05:36:26.931Z,60.67
2022-08-14T05:38:55.411Z,60.42
2022-08-14T05:41:22.995Z,60.17
2022-08-14T05:43:55.132Z,60.61
2022-08-14T05:46:23.016Z,60.86
2022-08-14T05:48:53.527Z,60.68
2022-08-14T05:51:22.448Z,60.80
2022-08-14T05:54:00.330Z,60.68
2022-08-14T05:56:29.810Z,58.76
2022-08-14T05:58:57.547Z,57.67
2022-08-14T06:01:31.288Z,58.01
2022-08-14T06:03:59.452Z,56.83
2022-08-14T06:06:27.757Z,56.12
2022-08-14T06:08:55.488Z,56.00
2022-08-14T06:11:23.882Z,55.64
2022-08-14T06:13:58.962Z,54.76
2022-08-14T06:16:26.738Z,55.83
2022-08-14T06:18:54.228Z,55.33
2022-08-14T06:21:27.094Z,53.07
2022-08-14T06:23:54.797Z,54.80
2022-08-14T06:26:22.713Z,55.48
2022-08-14T06:28:59.281Z,54.37
2022-08-14T06:31:27.379Z,52.34
2022-08-14T06:35:10.818Z,50.64
2022-08-14T06:36:42.873Z,53.33
2022-08-14T06:39:12.071Z,52.97
2022-08-14T06:41:58.075Z,52.51
2022-08-14T06:44:30.940Z,52.25
2022-08-14T06:47:04.709Z,52.15
2022-08-14T06:49:40.049Z,51.71
2022-08-14T06:52:15.256Z,52.33
2022-08-14T06:54:44.948Z,49.87
2022-08-14T06:57:15.179Z,51.01
2022-08-14T06:59:42.823Z,50.64
2022-08-14T07:02:29.865Z,50.00
2022-08-14T07:05:22.964Z,49.16
2022-08-14T07:07:51.573Z,48.11
2022-08-14T07:10:22.020Z,47.05
2022-08-14T07:13:01.233Z,47.06
2022-08-14T07:15:30.097Z,46.09
2022-08-14T07:18:00.752Z,47.80
2022-08-14T07:20:30.661Z,47.83
2022-08-14T07:23:07.434Z,47.00
2022-08-14T07:25:39.827Z,46.26
2022-08-14T07:28:20.925Z,46.23
2022-08-14T07:30:51.904Z,42.94
2022-08-14T07:33:28.895Z,45.46
2022-08-14T07:36:00.269Z,45.32
2022-08-14T07:38:34.067Z,45.02
2022-08-14T07:41:11.631Z,43.85
2022-08-14T07:43:42.405Z,43.23
2022-08-14T07:46:09.892Z,44.82
2022-08-14T07:48:39.980Z,44.83
2022-08-14T07:51:11.239Z,43.77
2022-08-14T07:53:40.867Z,44.22
2022-08-14T07:56:44.295Z,44.30
2022-08-14T07:58:59.593Z,43.43
2022-08-14T08:01:29.864Z,43.81
2022-08-14T08:03:59.913Z,44.38
2022-08-14T08:06:28.456Z,42.06
2022-08-14T08:09:02.982Z,42.14
2022-08-14T08:11:35.023Z,41.92
2022-08-14T08:14:10.876Z,41.32
2022-08-14T08:16:51.029Z,40.83
2022-08-14T08:19:19.446Z,40.77
2022-08-14T08:21:47.537Z,40.06
2022-08-14T08:24:19.830Z,39.95
2022-08-14T08:26:50.699Z,40.35
2022-08-14T08:29:28.370Z,39.94
2022-08-14T08:32:01.730Z,40.27
2022-08-14T08:34:48.358Z,40.05
2022-08-14T08:37:16.795Z,39.69
2022-08-14T08:40:02.631Z,39.28
2022-08-14T08:42:38.817Z,38.55
2022-08-14T08:45:12.059Z,38.11
2022-08-14T08:47:41.442Z,36.67
2022-08-14T08:50:23.107Z,36.40
2022-08-14T08:53:01.915Z,36.48
2022-08-14T08:55:31.344Z,35.62
2022-08-14T08:58:01.606Z,35.43
2022-08-14T09:00:33.722Z,34.95
2022-08-14T09:03:04.105Z,33.28
2022-08-14T09:05:34.293Z,33.10
2022-08-14T09:08:31.215Z,32.60
2022-08-14T09:11:19.891Z,33.07
2022-08-14T09:13:51.630Z,31.21
2022-08-14T09:16:25.293Z,30.57
2022-08-14T09:18:54.673Z,30.78
2022-08-14T09:21:24.302Z,30.98
2022-08-14T09:24:26.911Z,30.46
2022-08-14T09:26:49.576Z,29.94
2022-08-14T09:29:23.224Z,30.64
2022-08-14T09:32:01.105Z,30.06
2022-08-14T09:35:03.921Z,28.51
2022-08-14T09:38:29.129Z,29.43
2022-08-14T09:41:27.745Z,28.52
2022-08-14T09:44:49.518Z,28.61
2022-08-14T09:48:13.409Z,28.66
2022-08-14T09:50:53.523Z,28.18
2022-08-14T09:54:19.066Z,27.90
2022-08-14T09:57:28.866Z,27.58
2022-08-14T10:01:00.427Z,27.83
2022-08-14T10:03:34.400Z,26.55
2022-08-14T10:06:17.537Z,26.18
2022-08-14T10:09:42.652Z,26.33
2022-08-14T10:12:29.062Z,26.49
2022-08-14T10:15:57.302Z,26.56
2022-08-14T10:18:28.588Z,25.69
2022-08-14T10:21:01.515Z,25.69
2022-08-14T10:23:43.389Z,25.69
2022-08-14T10:27:07.140Z,26.03
2022-08-14T10:29:41.031Z,25.59
2022-08-14T10:32:17.286Z,25.56
2022-08-14T10:35:42.536Z,25.88
2022-08-14T10:38:32.288Z,25.24
2022-08-14T10:41:41.725Z,25.54
2022-08-14T10:44:20.901Z,25.54
2022-08-14T10:47:37.206Z,25.09
2022-08-14T10:50:00.992Z,25.16
2022-08-14T10:52:33.955Z,25.15
2022-08-14T10:55:19.294Z,24.70
2022-08-14T10:57:54.225Z,24.79
2022-08-14T11:00:30.303Z,24.33
2022-08-14T11:03:26.441Z,24.17
2022-08-14T11:06:15.211Z,24.44
2022-08-14T11:08:43.176Z,23.80
2022-08-14T11:11:13.367Z,23.82
2022-08-14T11:13:46.552Z,23.87
2022-08-14T11:16:15.909Z,23.77
2022-08-14T11:18:50.929Z,23.74
2022-08-14T11:21:22.937Z,23.76
2022-08-14T11:23:53.701Z,23.33
2022-08-14T11:26:28.081Z,22.96
2022-08-14T11:29:00.384Z,22.86
2022-08-14T11:31:38.654Z,22.46
2022-08-14T11:34:29.992Z,22.74
2022-08-14T11:37:02.727Z,22.63
2022-08-14T11:39:43.255Z,23.45
2022-08-14T11:42:57.913Z,23.77
2022-08-14T11:45:11.516Z,23.59
2022-08-14T11:48:13.729Z,22.88
2022-08-14T11:50:37.947Z,21.87
2022-08-14T11:53:08.755Z,21.66
2022-08-14T11:55:39.356Z,21.00
2022-08-14T11:58:11.090Z,20.19
2022-08-14T12:00:50.154Z,20.43
2022-08-14T12:03:37.659Z,19.73
2022-08-14T12:06:27.889Z,19.04
2022-08-14T12:09:00.727Z,17.46
2022-08-14T12:11:43.462Z,17.58
2022-08-14T12:14:30.950Z,16.72
2022-08-14T12:17:09.454Z,15.98
2022-08-14T12:19:57.028Z,16.02
2022-08-14T12:22:43.039Z,15.83
2022-08-14T12:25:14.816Z,15.60
2022-08-14T12:27:53.916Z,15.77
2022-08-14T12:30:42.996Z,15.51
2022-08-14T12:33:30.559Z,15.86
2022-08-14T12:36:04.575Z,15.04
2022-08-14T12:38:43.488Z,15.30
2022-08-14T12:41:21.047Z,15.32
2022-08-14T12:43:59.801Z,14.45
2022-08-14T12:46:46.593Z,14.43
2022-08-14T12:49:18.880Z,13.12
2022-08-14T12:51:58.886Z,12.49
2022-08-14T12:54:28.398Z,12.54
2022-08-14T12:57:18.715Z,13.06
2022-08-14T12:59:49.616Z,12.04
2022-08-14T13:02:25.471Z,11.38
2022-08-14T13:04:57.920Z,11.38
2022-08-14T13:07:32.578Z,10.60
2022-08-14T13:10:47.567Z,10.56
2022-08-14T13:13:12.954Z,11.17
2022-08-14T13:15:41.339Z,10.67
2022-08-14T13:18:15.778Z,10.59
2022-08-14T13:20:51.420Z,11.21
2022-08-14T13:23:31.659Z,10.90
2022-08-14T13:26:00.860Z,9.83
2022-08-14T13:28:32.766Z,10.60
2022-08-14T13:31:09.112Z,12.41
2022-08-14T13:33:41.068Z,11.83
2022-08-14T13:36:11.031Z,11.35
2022-08-14T13:38:53.580Z,10.12
2022-08-14T13:41:28.010Z,9.41
2022-08-14T13:44:00.720Z,10.08
2022-08-14T13:46:28.009Z,9.58
2022-08-14T13:48:57.605Z,9.59
2022-08-14T13:51:36.876Z,10.17
2022-08-14T13:54:10.997Z,9.93
2022-08-14T13:56:42.377Z,9.65
2022-08-14T13:59:11.085Z,9.87
2022-08-14T14:01:43.544Z,10.92
2022-08-14T14:04:19.310Z,9.33
2022-08-14T14:06:51.234Z,10.28
2022-08-14T14:09:37.670Z,9.91
2022-08-14T14:12:37.986Z,8.86
2022-08-14T14:15:15.103Z,8.79
2022-08-14T14:17:47.529Z,8.84
2022-08-14T14:20:34.212Z,10.25
2022-08-14T14:23:10.479Z,9.74
2022-08-14T14:25:51.096Z,10.82
2022-08-14T14:28:31.865Z,9.79
2022-08-14T14:31:06.121Z,10.26
2022-08-14T14:33:51.371Z,10.75
2022-08-14T14:36:32.170Z,11.24
2022-08-14T14:39:03.439Z,10.41
2022-08-14T14:41:38.066Z,9.82
2022-08-14T14:44:13.682Z,9.37
2022-08-14T14:46:50.511Z,9.51
2022-08-14T14:49:31.724Z,9.24
2022-08-14T14:52:23.472Z,8.73
2022-08-14T14:54:58.434Z,8.93
2022-08-14T14:57:34.771Z,9.73
2022-08-14T15:00:13.000Z,9.54
2022-08-14T15:02:57.795Z,9.50
2022-08-14T15:05:28.466Z,9.05
2022-08-14T15:07:56.059Z,9.32
2022-08-14T15:10:27.089Z,9.76
2022-08-14T15:13:03.463Z,9.38
2022-08-14T15:15:37.189Z,10.30
2022-08-14T15:18:36.334Z,10.22
2022-08-14T15:20:57.984Z,11.04
2022-08-14T15:23:32.260Z,11.09
2022-08-14T15:26:13.480Z,11.29
2022-08-14T15:29:03.245Z,11.80
2022-08-14T15:31:36.519Z,13.67
2022-08-14T15:34:43.939Z,11.74
2022-08-14T15:36:59.891Z,12.28
2022-08-14T15:39:29.676Z,10.57
2022-08-14T15:42:02.604Z,10.26
2022-08-14T15:44:34.334Z,10.22
2022-08-14T15:47:08.787Z,9.61
2022-08-14T15:49:37.248Z,10.43
2022-08-14T15:52:07.186Z,11.16
2022-08-14T15:54:35.082Z,11.93
2022-08-14T15:57:08.494Z,11.98
2022-08-14T15:59:56.509Z,12.41
2022-08-14T16:02:28.375Z,15.19
2022-08-14T16:04:56.813Z,13.04
2022-08-14T16:07:25.153Z,13.03
2022-08-14T16:10:18.625Z,12.77
2022-08-14T16:12:47.351Z,12.70
2022-08-14T16:15:16.657Z,12.85
2022-08-14T16:17:46.342Z,13.92
2022-08-14T16:20:42.467Z,13.50
2022-08-14T16:23:10.437Z,13.59
2022-08-14T16:25:45.663Z,13.39
2022-08-14T16:28:27.347Z,13.82
2022-08-14T16:30:56.165Z,14.24
2022-08-14T16:33:56.594Z,14.35
2022-08-14T16:36:31.458Z,14.90
2022-08-14T16:39:02.191Z,15.68
2022-08-14T16:41:30.799Z,15.95
2022-08-14T16:44:05.673Z,15.78
2022-08-14T16:46:45.579Z,15.62
2022-08-14T16:49:17.450Z,15.77
2022-08-14T16:51:46.300Z,16.57
2022-08-14T16:54:33.932Z,15.97
2022-08-14T16:57:16.062Z,15.76
2022-08-14T16:59:57.123Z,16.70
2022-08-14T17:02:39.072Z,16.20
2022-08-14T17:05:25.280Z,18.00
2022-08-14T17:08:33.450Z,17.34
2022-08-14T17:11:10.919Z,17.85
2022-08-14T17:13:58.081Z,17.39
2022-08-14T17:16:35.882Z,19.41
2022-08-14T17:19:11.592Z,19.12
2022-08-14T17:21:47.437Z,18.59
2022-08-14T17:24:55.796Z,20.05
2022-08-14T17:27:08.684Z,20.22
2022-08-14T17:29:56.234Z,20.96
2022-08-14T17:32:44.187Z,20.56
2022-08-14T17:35:16.839Z,20.71
2022-08-14T17:37:48.329Z,22.49
2022-08-14T17:40:29.800Z,22.55
2022-08-14T17:43:01.848Z,22.09
2022-08-14T17:45:41.043Z,21.70
2022-08-14T17:49:14.798Z,21.59
2022-08-14T17:51:14.156Z,22.30
2022-08-14T17:53:53.870Z,23.80
2022-08-14T17:56:31.010Z,23.29
2022-08-14T17:59:04.027Z,23.65
2022-08-14T18:01:37.971Z,23.79
2022-08-14T18:04:24.456Z,23.83
2022-08-14T18:07:16.733Z,25.20
2022-08-14T18:09:57.069Z,24.46
2022-08-14T18:12:36.510Z,24.76
2022-08-14T18:15:14.349Z,24.92
2022-08-14T18:17:52.676Z,25.82
2022-08-14T18:21:40.825Z,26.17
2022-08-14T18:23:13.128Z,26.16
2022-08-14T18:25:52.309Z,25.09
2022-08-14T18:28:51.761Z,26.45
2022-08-14T18:31:20.814Z,25.97
2022-08-14T18:33:58.990Z,27.07
2022-08-14T18:36:48.182Z,26.22
2022-08-14T18:40:01.267Z,24.92
2022-08-14T18:42:23.458Z,25.14
2022-08-14T18:44:51.330Z,26.30
2022-08-14T18:47:23.335Z,24.96
2022-08-14T18:49:54.412Z,24.57
2022-08-14T18:52:38.350Z,26.55
2022-08-14T18:55:15.779Z,25.21
2022-08-14T18:57:58.294Z,25.13
2022-08-14T19:00:32.890Z,25.23
2022-08-14T19:03:01.849Z,25.80
2022-08-14T19:05:47.304Z,24.80
2022-08-14T19:08:22.140Z,25.92
2022-08-14T19:11:03.909Z,25.98
2022-08-14T19:13:47.892Z,26.64
2022-08-14T19:16:26.096Z,27.83
2022-08-14T19:19:01.898Z,26.81
2022-08-14T19:21:56.094Z,27.36
2022-08-14T19:24:43.633Z,27.34
2022-08-14T19:27:24.156Z,26.63
2022-08-14T19:30:20.146Z,27.08
2022-08-14T19:33:48.438Z,27.63
2022-08-14T19:37:15.411Z,27.29
2022-08-14T19:40:45.604Z,29.60
2022-08-14T19:43:55.394Z,27.40
2022-08-14T19:46:37.569Z,27.47
2022-08-14T19:50:08.397Z,27.54
2022-08-14T19:52:43.270Z,28.77
2022-08-14T19:56:10.069Z,27.99
2022-08-14T19:58:54.711Z,28.84
2022-08-14T20:01:37.608Z,28.61
2022-08-14T20:05:06.971Z,29.12
2022-08-14T20:10:58.391Z,29.45
2022-08-14T20:12:00.251Z,29.99
2022-08-14T20:15:17.991Z,29.57
2022-08-14T20:18:49.874Z,29.94
2022-08-14T20:22:36.493Z,29.73
2022-08-14T20:25:20.572Z,29.59
2022-08-14T20:27:59.387Z,29.58
2022-08-14T20:30:35.074Z,31.72
2022-08-14T20:34:00.280Z,31.35
2022-08-14T20:36:30.832Z,32.56
2022-08-14T20:38:58.301Z,32.16
2022-08-14T20:41:25.841Z,31.85
2022-08-14T20:44:20.689Z,31.91
2022-08-14T20:46:49.990Z,31.62
2022-08-14T20:49:28.770Z,32.55
2022-08-14T20:52:04.831Z,32.50
2022-08-14T20:54:36.321Z,32.76
2022-08-14T20:57:17.953Z,33.20
2022-08-14T20:59:53.095Z,33.34
2022-08-14T21:02:51.011Z,32.54
2022-08-14T21:05:34.047Z,32.50
2022-08-14T21:08:08.368Z,32.77
2022-08-14T21:10:55.106Z,32.92
2022-08-14T21:14:08.988Z,32.61
2022-08-14T21:16:33.442Z,32.86
2022-08-14T21:19:04.022Z,32.69
2022-08-14T21:21:41.559Z,32.34
2022-08-14T21:24:39.609Z,33.07
2022-08-14T21:27:12.884Z,33.58
2022-08-14T21:29:53.916Z,33.53
2022-08-14T21:32:50.160Z,33.82
2022-08-14T21:35:24.305Z,33.40
2022-08-14T21:37:53.638Z,35.37
2022-08-14T21:40:40.672Z,36.09
2022-08-14T21:43:18.835Z,35.67
2022-08-14T21:45:53.813Z,35.21
2022-08-14T21:48:29.469Z,36.35
2022-08-14T21:51:54.072Z,36.10
2022-08-14T21:53:58.274Z,36.03
2022-08-14T21:56:38.301Z,35.84
2022-08-14T21:59:34.023Z,35.92
2022-08-14T22:02:07.097Z,36.66
2022-08-14T22:04:40.454Z,36.89
2022-08-14T22:07:16.715Z,36.28
2022-08-14T22:09:54.725Z,36.36
2022-08-14T22:12:58.564Z,35.61
2022-08-14T22:15:17.975Z,36.03
2022-08-14T22:17:52.330Z,35.98
2022-08-14T22:20:21.601Z,36.11
2022-08-14T22:22:56.071Z,36.11
2022-08-14T22:25:33.317Z,35.40
2022-08-14T22:28:11.163Z,36.21
2022-08-14T22:30:39.550Z,36.34
2022-08-14T22:33:10.044Z,35.54
2022-08-14T22:35:41.099Z,36.71
2022-08-14T22:38:35.278Z,36.73
2022-08-14T22:41:24.975Z,36.51
2022-08-14T22:43:45.527Z,37.83
2022-08-14T22:46:20.158Z,36.90
2022-08-14T22:48:50.910Z,37.26
2022-08-14T22:51:22.569Z,37.74
2022-08-14T22:53:54.043Z,37.25
2022-08-14T22:56:30.064Z,38.01
2022-08-14T22:59:02.788Z,37.04
2022-08-14T23:01:56.867Z,38.45
2022-08-14T23:04:35.415Z,38.57
2022-08-14T23:07:22.203Z,38.35
2022-08-14T23:10:32.522Z,38.99
2022-08-14T23:12:54.575Z,38.73
2022-08-14T23:15:28.980Z,39.24
2022-08-14T23:17:58.450Z,37.50
2022-08-14T23:20:29.285Z,40.92
2022-08-14T23:22:57.895Z,42.59
2022-08-14T23:25:57.239Z,42.64
2022-08-14T23:28:34.256Z,42.81
2022-08-14T23:31:34.912Z,46.09
2022-08-14T23:34:09.541Z,44.68
2022-08-14T23:36:53.018Z,43.57
2022-08-14T23:39:32.811Z,42.67
2022-08-14T23:42:08.345Z,54.76
2022-08-14T23:44:37.699Z,60.42
2022-08-14T23:47:11.664Z,63.35
2022-08-14T23:50:03.384Z,56.30
2022-08-14T23:52:50.973Z,57.72
2022-08-14T23:55:34.426Z,57.31
2022-08-14T23:58:01.875Z,52.27
